Hauptseite
METAR-TAF:

METAR-TAF

Flughäfen :

Flughafen Sakon Nakhon

Sakon Nakhon, Thailand

Breite: 17-11-42N, Länge: 104-07-08E, Höhe: 161 m

Beobachtung

Neuester Wetterbericht von vor 1 Stunde und 12 Minuten, um 02:00 UTC
Wind 6 kt aus Südost, variierte zwischen Ost und Süd
Temperatur 29°C
Luftfeuchtigkeit 70%
Luftdruck 1014 hPa
Sichtweite 10 km oder mehr
keine Wolken unter 1500 m und keine Kumulonimbus oder Gewitterwolken

METAR: VTUI 170200Z 13006KT 100V180 CAVOK 29/23 Q1014 NOSIG

Zeit: 10:12 (03:12 UTC)

Prognose

Neuester Wetterbericht von vor 4 Stunden und 12 Minuten, um 23:00 UTC
Gültige Prognose vom 17 um 00 UTC bis 17 um 24 UTC
Wind 5 kt aus Ost
Sichtweite 10 km oder mehr
Leicht bewölkt in der Höhe von 3000 ft

TAF: VTUI 162300Z 1700/1724 09005KT 9999 FEW030

Wetterbeobachtungen und Prognosen von mehr als 4000 Flughäfen (METAR und TAF Bericht).

Die verfügbaren Stationen werden durch gelbe und rote Markierungen auf der Karte dargestellt.

Führen Sie die Maus auf sie, um den Namen der Station zu sehen.

Darauf klicken, um die Beobachtung von Wetterbeobachtungen und Prognosen zu sehen.

Um die Karte zu ändern : klicken Sie auf den grünen Tasten mit einem schwarzen Kreuz Zum Vergrößern, auf den grünen Button mit einem Gedankenstrich zu verkleinern, oder auf die grünen Pfeile für benachbarte Karten.


METAR-TAF: